Time;durP1;ratioP1;P1;durP2;ratioP2;P2;SDS_P1;SDS_P2;PMS_P1;PMS_P2;Temp;Humidity;BMP_temperature;BMP_pressure;BME280_temperature;BME280_humidity;BME280_pressure;Samples;Min_cycle;Max_cycle;Signal;HPM_P1;HPM_P2
2021/05/12 00:00:32;;;;;;;6.93;2.50;;;7.00;99.90;;;;;;5076018;28;20021;-72
2021/05/12 00:02:58;;;;;;;9.00;2.67;;;13.10;99.90;;;;;;5057141;28;20039;-73
2021/05/12 00:05:25;;;;;;;5.15;2.10;;;9.60;99.90;;;;;;5075247;28;20485;-73
2021/05/12 00:07:51;;;;;;;6.43;2.92;;;10.10;99.90;;;;;;5075553;28;20469;-73
2021/05/12 00:10:18;;;;;;;5.55;2.45;;;10.10;99.90;;;;;;5075013;28;20032;-75
2021/05/12 00:12:44;;;;;;;7.28;2.97;;;10.10;99.90;;;;;;5056873;28;20025;-74
2021/05/12 00:15:13;;;;;;;7.45;2.80;;;10.10;99.90;;;;;;5057001;28;20024;-76
2021/05/12 00:17:40;;;;;;;6.85;2.50;;;10.00;99.90;;;;;;5074636;28;20418;-74
2021/05/12 00:20:07;;;;;;;5.15;2.40;;;10.00;99.90;;;;;;5074661;28;20024;-76
2021/05/12 00:25:07;;;;;;;10.85;3.17;;;10.00;99.90;;;;;;5075006;28;20028;-76
2021/05/12 00:27:32;;;;;;;11.18;3.03;;;10.00;99.90;;;;;;5074663;28;20021;-76
2021/05/12 00:29:58;;;;;;;7.25;2.35;;;10.80;99.90;;;;;;5056500;28;20016;-75
2021/05/12 00:32:24;;;;;;;5.93;2.55;;;10.10;99.90;;;;;;5075049;28;20115;-73
2021/05/12 00:34:49;;;;;;;7.75;2.78;;;10.10;99.90;;;;;;5075555;28;20021;-74
2021/05/12 00:37:15;;;;;;;13.93;4.13;;;10.20;99.90;;;;;;5056433;28;20036;-74
2021/05/12 00:39:41;;;;;;;10.93;3.08;;;10.20;99.90;;;;;;5056379;28;20040;-74
2021/05/12 00:42:07;;;;;;;11.50;3.03;;;10.20;99.90;;;;;;5056403;28;20012;-75
2021/05/12 00:44:32;;;;;;;6.75;2.58;;;10.30;99.90;;;;;;5074552;28;20049;-72
2021/05/12 00:47:04;;;;;;;5.85;2.80;;;10.30;99.90;;;;;;5074389;28;20016;-72
2021/05/12 00:49:29;;;;;;;7.63;2.95;;;10.30;99.90;;;;;;5074428;28;20095;-72
2021/05/12 00:51:55;;;;;;;8.13;2.38;;;10.30;99.90;;;;;;5074057;28;20104;-72
2021/05/12 00:54:21;;;;;;;8.85;3.42;;;10.40;99.90;;;;;;5056407;28;20032;-72
2021/05/12 00:56:46;;;;;;;9.90;2.25;;;10.40;99.90;;;;;;5073919;28;20526;-74
2021/05/12 00:59:12;;;;;;;5.78;2.83;;;10.40;99.90;;;;;;5073818;28;20041;-74
2021/05/12 01:01:38;;;;;;;16.13;4.43;;;10.40;99.90;;;;;;5073839;28;20141;-73
2021/05/12 01:04:07;;;;;;;6.53;2.03;;;10.40;99.90;;;;;;5055889;28;20055;-73
2021/05/12 01:06:34;;;;;;;;;;;10.40;99.90;;;;;;5074231;28;20020;-74
2021/05/12 01:09:00;;;;;;;7.60;2.88;;;10.40;99.90;;;;;;5073788;28;19905;-73
2021/05/12 01:11:27;;;;;;;5.47;2.10;;;10.40;99.90;;;;;;5074218;28;20381;-73
2021/05/12 01:13:53;;;;;;;9.90;2.35;;;10.40;99.90;;;;;;5073933;28;20020;-73
2021/05/12 01:16:19;;;;;;;4.18;2.00;;;10.50;99.90;;;;;;5073494;28;20107;-73
2021/05/12 01:18:46;;;;;;;12.07;3.13;;;10.40;99.90;;;;;;5073897;28;20035;-74
2021/05/12 01:21:12;;;;;;;7.50;2.90;;;10.40;99.90;;;;;;5055969;28;20524;-74
2021/05/12 01:23:44;;;;;;;7.50;2.13;;;10.50;99.90;;;;;;5073968;28;20421;-72
2021/05/12 01:26:16;;;;;;;19.38;3.85;;;10.50;99.90;;;;;;5073984;28;20044;-74
2021/05/12 01:28:47;;;;;;;12.65;3.63;;;10.50;99.90;;;;;;5074157;28;20048;-73
2021/05/12 01:31:16;;;;;;;8.82;2.72;;;10.50;99.90;;;;;;5074367;28;20027;-75
2021/05/12 01:33:43;;;;;;;9.10;3.35;;;10.50;99.90;;;;;;5055723;28;20028;-75
2021/05/12 01:36:09;;;;;;;6.60;2.47;;;10.50;99.90;;;;;;5073868;28;20021;-75
2021/05/12 01:38:36;;;;;;;4.75;2.47;;;10.50;99.90;;;;;;5073710;28;20135;-74
2021/05/12 01:41:03;;;;;;;8.82;2.55;;;10.50;99.90;;;;;;5073451;28;20024;-73
2021/05/12 01:43:31;;;;;;;11.95;3.67;;;10.50;99.90;;;;;;5073309;28;20024;-73
2021/05/12 01:45:56;;;;;;;6.28;2.83;;;10.50;99.90;;;;;;5073546;28;20028;-73
2021/05/12 01:48:23;;;;;;;8.88;2.95;;;10.50;99.90;;;;;;5073161;28;20025;-73
2021/05/12 01:50:48;;;;;;;6.93;2.67;;;10.50;99.90;;;;;;5073368;28;20074;-74
2021/05/12 01:53:14;;;;;;;12.98;3.28;;;10.40;99.90;;;;;;5055280;28;20033;-72
2021/05/12 01:55:40;;;;;;;8.15;3.30;;;10.40;99.90;;;;;;5055418;28;20048;-72
2021/05/12 01:58:06;;;;;;;7.93;3.15;;;10.30;99.90;;;;;;5055509;28;20145;-72
2021/05/12 02:00:35;;;;;;;8.75;3.15;;;10.30;99.90;;;;;;5056149;28;20492;-72
2021/05/12 02:03:04;;;;;;;12.48;4.30;;;10.30;99.90;;;;;;5073655;28;20027;-73
2021/05/12 02:05:31;;;;;;;8.98;3.13;;;10.30;99.90;;;;;;5073390;28;20436;-74
2021/05/12 02:07:58;;;;;;;7.40;3.45;;;10.20;99.90;;;;;;5055306;28;20013;-74
2021/05/12 02:10:26;;;;;;;8.02;3.40;;;10.20;99.90;;;;;;5073278;28;20438;-73
2021/05/12 02:12:52;;;;;;;14.27;5.13;;;10.10;99.90;;;;;;5067851;23;20048;-74
2021/05/12 02:15:18;;;;;;;8.15;3.72;;;10.10;99.90;;;;;;5073782;28;20081;-74
2021/05/12 02:17:44;;;;;;;8.93;3.40;;;10.10;99.90;;;;;;5055131;28;20031;-74
2021/05/12 02:20:13;;;;;;;7.65;3.42;;;10.00;99.90;;;;;;5086147;22;20101;-74
2021/05/12 02:22:39;;;;;;;;;;;9.90;99.90;;;;;;5074557;28;20031;-73
2021/05/12 02:25:06;;;;;;;7.38;3.17;;;9.90;99.90;;;;;;5055256;28;19908;-76
2021/05/12 02:27:32;;;;;;;10.52;3.88;;;10.00;99.90;;;;;;5073216;28;20035;-74
2021/05/12 02:30:01;;;;;;;9.48;3.83;;;9.90;99.90;;;;;;5093406;22;20020;-75
2021/05/12 02:32:27;;;;;;;6.20;3.50;;;9.90;99.90;;;;;;5054847;28;20031;-74
2021/05/12 02:34:53;;;;;;;13.75;4.30;;;9.80;99.90;;;;;;5055006;28;20029;-74
2021/05/12 02:37:19;;;;;;;6.38;3.53;;;9.80;99.90;;;;;;5072723;28;20027;-73
2021/05/12 02:39:45;;;;;;;8.38;3.30;;;9.80;99.90;;;;;;5072894;28;20062;-75
2021/05/12 02:42:10;;;;;;;10.55;3.88;;;9.70;99.90;;;;;;5090791;28;20039;-74
2021/05/12 02:44:36;;;;;;;8.85;4.25;;;9.70;99.90;;;;;;5092998;28;20020;-75
2021/05/12 02:47:01;;;;;;;10.30;4.05;;;9.70;99.90;;;;;;5073313;28;20089;-75
2021/05/12 02:49:27;;;;;;;11.52;4.90;;;9.70;99.90;;;;;;5072739;28;20401;-75
2021/05/12 02:51:52;;;;;;;15.35;4.85;;;9.70;99.90;;;;;;5069732;28;20373;-77
2021/05/12 02:54:19;;;;;;;10.10;5.10;;;9.60;99.90;;;;;;5096828;28;20165;-73
2021/05/12 02:56:45;;;;;;;7.55;4.68;;;9.60;99.90;;;;;;5095197;22;20048;-74
2021/05/12 02:59:10;;;;;;;15.43;5.60;;;9.50;99.90;;;;;;5076135;28;20482;-74
2021/05/12 03:01:36;;;;;;;9.23;4.45;;;9.50;99.90;;;;;;5070778;28;20088;-74
2021/05/12 03:04:02;;;;;;;15.70;5.22;;;9.50;99.90;;;;;;5061013;28;20021;-74
2021/05/12 03:06:27;;;;;;;11.35;5.13;;;9.40;99.90;;;;;;5058355;28;20381;-74
2021/05/12 03:08:53;;;;;;;14.80;5.05;;;9.40;99.90;;;;;;5060908;28;20036;-73
2021/05/12 03:11:18;;;;;;;14.32;5.75;;;9.40;99.90;;;;;;5056578;28;20095;-74
2021/05/12 03:13:44;;;;;;;12.02;4.82;;;9.40;99.90;;;;;;5038479;28;20426;-74
2021/05/12 03:16:10;;;;;;;16.20;5.90;;;9.40;99.90;;;;;;5056371;28;20025;-74
2021/05/12 03:18:36;;;;;;;18.50;5.75;;;9.30;99.90;;;;;;5038141;28;20021;-74
2021/05/12 03:21:01;;;;;;;13.63;5.90;;;9.20;99.90;;;;;;5038344;28;20017;-74
2021/05/12 03:23:27;;;;;;;12.05;5.85;;;9.20;99.90;;;;;;5055962;28;20017;-74
2021/05/12 03:25:52;;;;;;;9.82;5.38;;;9.20;99.90;;;;;;5056096;28;20482;-76
2021/05/12 03:28:19;;;;;;;15.38;5.53;;;9.20;99.90;;;;;;5056153;28;20470;-75
2021/05/12 03:30:45;;;;;;;12.05;5.70;;;9.10;99.90;;;;;;5075169;28;20032;-74
2021/05/12 03:33:10;;;;;;;12.20;5.68;;;9.00;99.90;;;;;;5096209;28;20376;-75
2021/05/12 03:35:38;;;;;;;13.45;5.55;;;8.90;99.90;;;;;;5078039;28;20400;-73
2021/05/12 03:38:04;;;;;;;11.48;6.10;;;8.90;99.90;;;;;;5070860;28;20115;-74
2021/05/12 03:40:30;;;;;;;11.23;5.43;;;8.90;99.90;;;;;;5076068;28;20096;-73
2021/05/12 03:42:58;;;;;;;17.90;7.28;;;8.90;99.90;;;;;;5089147;22;20079;-75
2021/05/12 03:45:24;;;;;;;10.57;5.88;;;8.90;99.90;;;;;;5057941;28;20393;-75
2021/05/12 03:47:51;;;;;;;11.30;5.05;;;8.90;99.90;;;;;;5091586;22;20020;-73
2021/05/12 03:50:18;;;;;;;14.82;5.75;;;8.80;99.90;;;;;;5057539;28;20493;-74
2021/05/12 03:52:44;;;;;;;14.70;5.80;;;8.80;99.90;;;;;;5069617;28;20075;-74
2021/05/12 03:55:11;;;;;;;11.27;5.95;;;8.80;99.90;;;;;;5055907;28;20060;-74
2021/05/12 03:57:37;;;;;;;13.18;5.93;;;8.80;99.90;;;;;;5039412;28;20049;-72
2021/05/12 04:00:06;;;;;;;9.50;5.28;;;9.00;99.90;;;;;;5075685;28;20489;-73
2021/05/12 04:02:32;;;;;;;14.38;7.00;;;8.80;99.90;;;;;;5057347;28;20020;-74
2021/05/12 04:04:57;;;;;;;13.70;6.40;;;8.80;99.90;;;;;;5056936;28;20077;-74
2021/05/12 04:07:23;;;;;;;14.38;6.03;;;8.70;99.90;;;;;;5057107;28;20021;-74
2021/05/12 04:09:49;;;;;;;14.00;6.78;;;8.70;99.90;;;;;;5068231;28;20393;-73
2021/05/12 04:12:14;;;;;;;13.38;6.55;;;8.70;99.90;;;;;;5075325;28;20058;-73
2021/05/12 04:14:40;;;;;;;14.75;6.60;;;8.70;99.90;;;;;;5057229;28;20056;-75
2021/05/12 04:17:06;;;;;;;12.93;6.28;;;8.70;99.90;;;;;;5074991;28;20048;-73
2021/05/12 04:19:31;;;;;;;22.52;7.15;;;9.20;99.90;;;;;;5047300;28;20032;-74
2021/05/12 04:21:58;;;;;;;14.00;6.63;;;8.70;99.90;;;;;;5037318;28;20063;-73
2021/05/12 04:24:24;;;;;;;10.70;6.05;;;8.70;99.90;;;;;;5036929;28;20024;-74
2021/05/12 04:26:50;;;;;;;14.50;7.30;;;8.70;99.90;;;;;;5037195;28;20075;-73
2021/05/12 04:29:16;;;;;;;13.88;6.82;;;8.60;99.90;;;;;;5062539;28;20028;-75
2021/05/12 04:31:42;;;;;;;13.93;5.65;;;8.60;99.90;;;;;;5074971;28;20037;-75
2021/05/12 04:34:07;;;;;;;18.38;6.68;;;8.60;99.90;;;;;;5074547;28;20024;-74
2021/05/12 04:36:33;;;;;;;14.35;6.32;;;8.50;99.90;;;;;;5056601;28;20500;-74
2021/05/12 04:38:59;;;;;;;13.18;6.20;;;8.50;99.90;;;;;;5068914;28;20152;-74
2021/05/12 04:41:25;;;;;;;12.45;5.55;;;8.60;99.90;;;;;;5054467;28;20036;-74
2021/05/12 04:43:54;;;;;;;11.05;6.10;;;8.50;99.90;;;;;;5054781;28;20092;-74
2021/05/12 04:46:21;;;;;;;12.05;5.43;;;8.60;99.90;;;;;;5054230;28;20028;-74
2021/05/12 04:48:47;;;;;;;9.98;5.57;;;8.60;99.90;;;;;;5038894;28;20033;-75
2021/05/12 04:51:12;;;;;;;11.32;5.00;;;8.60;99.90;;;;;;5074827;28;20343;-74
2021/05/12 04:53:38;;;;;;;13.55;5.25;;;8.70;99.90;;;;;;5074022;28;20048;-74
2021/05/12 04:56:04;;;;;;;13.93;4.85;;;8.80;99.90;;;;;;5072880;28;20029;-74
2021/05/12 04:58:31;;;;;;;12.68;5.63;;;8.90;99.90;;;;;;5073121;28;20067;-75
2021/05/12 05:00:56;;;;;;;12.38;4.88;;;9.00;99.90;;;;;;5054005;28;20029;-74
2021/05/12 05:03:22;;;;;;;14.60;5.15;;;9.20;99.90;;;;;;5053974;28;20025;-75
2021/05/12 05:05:48;;;;;;;14.32;4.53;;;9.40;99.90;;;;;;5054197;28;20576;-75
2021/05/12 05:08:14;;;;;;;12.68;4.95;;;9.60;99.90;;;;;;5053888;28;20028;-75
2021/05/12 05:10:40;;;;;;;9.13;4.10;;;9.70;99.90;;;;;;5084733;22;20052;-74
2021/05/12 05:13:06;;;;;;;14.05;4.35;;;9.80;99.90;;;;;;5057191;28;20017;-73
2021/05/12 05:15:37;;;;;;;9.60;3.97;;;9.90;99.90;;;;;;5073291;28;20497;-75
2021/05/12 05:18:03;;;;;;;10.27;4.13;;;10.10;99.90;;;;;;5073823;28;20027;-75
2021/05/12 05:20:34;;;;;;;10.73;4.28;;;10.20;99.90;;;;;;5056069;28;20021;-74
2021/05/12 05:23:01;;;;;;;12.70;4.30;;;10.30;99.90;;;;;;5056471;28;20170;-73
2021/05/12 05:25:27;;;;;;;12.85;5.05;;;12.00;99.90;;;;;;5074147;28;20028;-73
2021/05/12 05:27:52;;;;;;;11.13;4.72;;;10.60;99.90;;;;;;5074022;28;20028;-74
2021/05/12 05:30:18;;;;;;;13.23;5.22;;;10.70;99.90;;;;;;5088879;28;20107;-73
2021/05/12 05:32:43;;;;;;;9.30;4.60;;;10.80;99.90;;;;;;5093952;28;20043;-74
2021/05/12 05:35:10;;;;;;;10.85;4.32;;;10.90;99.90;;;;;;5094069;28;20081;-72
2021/05/12 05:37:36;;;;;;;14.35;5.22;;;11.00;99.90;;;;;;5078997;28;20028;-72
2021/05/12 05:40:02;;;;;;;14.45;5.68;;;11.10;99.90;;;;;;5074292;28;20477;-75
2021/05/12 05:42:27;;;;;;;14.02;4.65;;;11.20;99.90;;;;;;5087498;23;20068;-77
2021/05/12 05:44:53;;;;;;;10.90;4.78;;;11.30;99.90;;;;;;5074785;28;20017;-75
2021/05/12 05:47:18;;;;;;;13.15;4.53;;;11.40;99.90;;;;;;5056329;28;20031;-72
2021/05/12 05:49:46;;;;;;;13.25;4.72;;;11.40;99.90;;;;;;5056073;28;20111;-73
2021/05/12 05:54:40;;;;;;;7.90;3.22;;;11.60;99.90;;;;;;5052780;28;20041;-75
2021/05/12 05:57:06;;;;;;;8.73;3.70;;;11.70;99.90;;;;;;5036252;28;20021;-74
2021/05/12 05:59:33;;;;;;;9.85;4.25;;;11.80;99.90;;;;;;5036088;28;20029;-74
2021/05/12 06:02:00;;;;;;;14.88;3.40;;;12.50;99.90;;;;;;5053665;28;20382;-74
2021/05/12 06:04:25;;;;;;;13.63;3.80;;;11.90;99.90;;;;;;5055979;28;20389;-76
2021/05/12 06:06:52;;;;;;;9.30;2.13;;;12.00;99.90;;;;;;5075300;28;20027;-75
2021/05/12 06:09:18;;;;;;;8.75;2.63;;;12.10;99.90;;;;;;5056311;28;20405;-75
2021/05/12 06:11:44;;;;;;;10.05;2.08;;;12.20;99.90;;;;;;5057480;28;20100;-75
2021/05/12 06:14:09;;;;;;;15.52;2.75;;;12.20;99.90;;;;;;5074793;28;20060;-77
2021/05/12 06:16:35;;;;;;;11.10;1.27;;;12.30;99.90;;;;;;5075390;28;20024;-75
2021/05/12 06:19:00;;;;;;;10.63;2.53;;;12.40;99.90;;;;;;5068740;23;20043;-76
2021/05/12 06:21:26;;;;;;;6.35;1.83;;;12.50;99.90;;;;;;5081234;28;20524;-74
2021/05/12 06:23:52;;;;;;;13.63;2.30;;;12.40;99.90;;;;;;5072905;28;20138;-75
2021/05/12 06:26:19;;;;;;;8.13;1.27;;;12.50;99.90;;;;;;5038775;28;20036;-75
2021/05/12 06:28:46;;;;;;;9.00;2.45;;;12.60;99.90;;;;;;5070882;22;20051;-76
2021/05/12 06:31:12;;;;;;;10.27;1.77;;;12.60;99.90;;;;;;5078247;28;20025;-75
2021/05/12 06:33:41;;;;;;;10.15;1.85;;;12.60;99.90;;;;;;5063884;28;20036;-75
2021/05/12 06:36:07;;;;;;;7.68;1.23;;;12.70;99.90;;;;;;5058077;28;20021;-75
2021/05/12 06:38:33;;;;;;;15.05;2.67;;;12.80;99.90;;;;;;5056581;28;20024;-75
2021/05/12 06:40:59;;;;;;;9.43;1.75;;;12.80;99.90;;;;;;5058429;28;20044;-77
2021/05/12 06:43:25;;;;;;;7.25;2.00;;;14.60;99.90;;;;;;5058356;28;20036;-76
2021/05/12 06:45:51;;;;;;;8.02;1.48;;;13.00;99.90;;;;;;5056788;28;20477;-75
2021/05/12 06:48:17;;;;;;;9.68;1.55;;;13.10;99.90;;;;;;5056503;28;20032;-76
2021/05/12 06:50:44;;;;;;;6.53;0.90;;;13.30;99.90;;;;;;5056637;28;20143;-74
2021/05/12 06:53:10;;;;;;;8.45;1.17;;;13.30;99.90;;;;;;5038643;28;20358;-78
2021/05/12 06:55:36;;;;;;;8.27;0.95;;;13.40;99.90;;;;;;5060090;28;20084;-78
2021/05/12 06:58:02;;;;;;;5.22;0.80;;;13.50;99.90;;;;;;5059512;28;20040;-76
2021/05/12 07:00:27;;;;;;;6.47;1.55;;;13.60;99.90;;;;;;5056280;28;20032;-76
2021/05/12 07:02:53;;;;;;;7.15;0.70;;;13.70;99.90;;;;;;5055996;28;20024;-76
2021/05/12 07:05:20;;;;;;;7.28;2.25;;;14.70;99.90;;;;;;5056921;28;20028;-76
2021/05/12 07:07:46;;;;;;;10.55;0.68;;;13.80;99.90;;;;;;5056302;28;20420;-75
2021/05/12 07:10:12;;;;;;;4.35;0.60;;;13.90;99.90;;;;;;5039411;28;20124;-74
2021/05/12 07:12:38;;;;;;;9.73;0.93;;;13.90;99.90;;;;;;5056241;28;20137;-76
2021/05/12 07:15:05;;;;;;;5.00;0.35;;;14.10;99.90;;;;;;5038991;28;20486;-76
2021/05/12 07:17:30;;;;;;;8.98;1.05;;;13.90;99.90;;;;;;5069882;22;20044;-75
2021/05/12 07:19:56;;;;;;;5.97;0.52;;;13.80;99.90;;;;;;5057801;28;20056;-74
2021/05/12 07:22:23;;;;;;;7.75;0.70;;;13.90;99.90;;;;;;5075868;28;20495;-74
2021/05/12 07:24:49;;;;;;;4.15;0.25;;;14.00;99.90;;;;;;5062949;28;20017;-74
2021/05/12 07:27:16;;;;;;;9.23;1.08;;;14.20;99.90;;;;;;5057617;28;20024;-74
2021/05/12 07:29:42;;;;;;;7.70;0.38;;;14.30;99.90;;;;;;5056309;28;20048;-75
2021/05/12 07:32:07;;;;;;;6.43;0.63;;;14.20;99.90;;;;;;5075513;28;20410;-74
2021/05/12 07:34:33;;;;;;;9.88;0.43;;;14.20;99.90;;;;;;5065492;28;20048;-77
2021/05/12 07:36:59;;;;;;;5.15;0.32;;;14.20;99.90;;;;;;5073149;28;20370;-77
2021/05/12 07:39:26;;;;;;;6.85;0.57;;;14.30;99.90;;;;;;5073018;28;20020;-77
2021/05/12 07:41:52;;;;;;;6.85;0.30;;;14.40;99.90;;;;;;5077681;28;20047;-74
2021/05/12 07:44:18;;;;;;;5.55;0.22;;;14.60;99.90;;;;;;5077623;28;20008;-73
2021/05/12 07:46:44;;;;;;;11.55;0.60;;;14.60;99.90;;;;;;5095787;28;20020;-73
2021/05/12 07:49:10;;;;;;;6.85;0.25;;;14.50;99.90;;;;;;5077833;28;20031;-73
2021/05/12 07:51:35;;;;;;;25.40;3.10;;;14.50;99.90;;;;;;5096327;28;20020;-73
2021/05/12 07:54:01;;;;;;;10.63;1.08;;;14.50;99.90;;;;;;5095997;28;20020;-77
2021/05/12 07:56:26;;;;;;;5.35;0.22;;;14.60;99.90;;;;;;5095896;28;20434;-73
2021/05/12 07:58:52;;;;;;;5.85;0.57;;;14.70;99.90;;;;;;5095976;28;20032;-77
2021/05/12 08:01:21;;;;;;;5.80;0.35;;;14.80;99.90;;;;;;5095713;28;20027;-76
2021/05/12 08:03:46;;;;;;;5.35;0.45;;;14.70;99.90;;;;;;5096620;28;20081;-78
2021/05/12 08:06:12;;;;;;;7.00;0.55;;;14.90;99.90;;;;;;5095937;28;20020;-75
2021/05/12 08:08:38;;;;;;;2.80;1.02;;;14.80;99.70;;;;;;5077263;28;20028;-75
2021/05/12 08:11:07;;;;;;;11.63;0.47;;;14.70;99.90;;;;;;5095524;28;20034;-75
2021/05/12 08:13:33;;;;;;;7.68;0.47;;;14.80;99.80;;;;;;5095403;28;20031;-78
2021/05/12 08:15:59;;;;;;;5.85;0.50;;;14.90;99.90;;;;;;5084190;28;20020;-78
2021/05/12 08:18:25;;;;;;;6.97;0.55;;;14.90;98.00;;;;;;5058720;28;20067;-78
2021/05/12 08:20:52;;;;;;;7.18;0.75;;;15.00;99.90;;;;;;5070412;28;20041;-73
2021/05/12 08:23:18;;;;;;;4.95;0.22;;;15.10;99.90;;;;;;5075238;28;20028;-73
2021/05/12 08:25:45;;;;;;;6.35;0.28;;;15.30;98.90;;;;;;5075118;28;20480;-78
2021/05/12 08:28:11;;;;;;;5.78;0.35;;;15.50;97.10;;;;;;5058173;28;20020;-76
2021/05/12 08:30:38;;;;;;;2.65;0.00;;;15.60;97.20;;;;;;5074407;28;20655;-75
2021/05/12 08:33:04;;;;;;;3.78;0.50;;;15.80;96.50;;;;;;5055265;28;20017;-75
2021/05/12 08:35:30;;;;;;;3.75;0.32;;;16.00;94.50;;;;;;5058300;28;20393;-75
2021/05/12 08:37:55;;;;;;;5.30;0.32;;;16.00;93.70;;;;;;5046334;28;20025;-75
2021/05/12 08:40:22;;;;;;;6.63;0.28;;;16.70;96.30;;;;;;5056745;28;20031;-73
2021/05/12 08:42:50;;;;;;;4.68;0.70;;;16.30;95.70;;;;;;5055268;28;20024;-78
2021/05/12 08:45:17;;;;;;;2.90;0.10;;;16.30;92.30;;;;;;5053004;28;20426;-76
2021/05/12 08:47:45;;;;;;;7.15;0.47;;;16.30;89.00;;;;;;5069094;28;20039;-77
2021/05/12 08:50:11;;;;;;;3.97;0.40;;;16.20;91.30;;;;;;5074578;28;20017;-75
2021/05/12 08:52:41;;;;;;;6.30;0.10;;;16.40;90.30;;;;;;5056138;28;20064;-75
2021/05/12 08:55:08;;;;;;;7.38;1.20;;;16.20;89.50;;;;;;5054205;28;20031;-75
2021/05/12 08:57:33;;;;;;;5.15;0.17;;;16.20;86.60;;;;;;5072788;28;20025;-75
2021/05/12 08:59:59;;;;;;;5.55;0.65;;;16.30;91.20;;;;;;5073945;28;20024;-75
2021/05/12 09:02:24;;;;;;;4.10;0.57;;;16.50;91.10;;;;;;5073721;28;20029;-75
2021/05/12 09:04:50;;;;;;;3.72;0.50;;;16.50;84.30;;;;;;5074003;28;20363;-75
2021/05/12 09:07:16;;;;;;;6.93;0.20;;;16.40;89.10;;;;;;5054310;28;20020;-75
2021/05/12 09:09:41;;;;;;;8.00;0.10;;;16.30;85.00;;;;;;5073761;28;20025;-75
2021/05/12 09:12:12;;;;;;;3.90;0.20;;;16.30;83.20;;;;;;5055383;28;20047;-75
2021/05/12 09:14:38;;;;;;;3.08;0.30;;;16.40;84.40;;;;;;5072439;28;20028;-75
2021/05/12 09:17:04;;;;;;;6.35;0.63;;;16.50;83.40;;;;;;5071925;28;20448;-75
2021/05/12 09:19:31;;;;;;;6.38;0.08;;;16.60;87.00;;;;;;5045531;28;20120;-75
2021/05/12 09:22:00;;;;;;;6.65;0.98;;;16.80;86.60;;;;;;5035569;28;20078;-75
2021/05/12 09:24:34;;;;;;;3.33;0.17;;;17.00;83.60;;;;;;5053792;28;20496;-76
2021/05/12 09:27:03;;;;;;;2.90;0.32;;;16.90;76.90;;;;;;5035927;28;20031;-74
2021/05/12 09:29:35;;;;;;;4.68;0.47;;;16.90;78.30;;;;;;5054271;28;20021;-77
2021/05/12 09:32:07;;;;;;;2.97;0.20;;;16.90;80.50;;;;;;5036833;28;20029;-75
2021/05/12 09:35:00;;;;;;;4.05;0.00;;;17.30;81.00;;;;;;5053957;28;20428;-75
2021/05/12 09:37:29;;;;;;;5.68;0.80;;;17.40;73.40;;;;;;5064676;28;20036;-75
2021/05/12 09:39:55;;;;;;;3.08;0.43;;;17.00;71.00;;;;;;5072710;28;20027;-74
2021/05/12 09:42:22;;;;;;;1.75;0.00;;;17.00;73.10;;;;;;5046106;28;20025;-76
2021/05/12 09:45:06;;;;;;;4.13;0.32;;;17.30;74.90;;;;;;5073309;28;20105;-76
2021/05/12 09:47:32;;;;;;;7.57;0.20;;;17.70;73.50;;;;;;5073975;28;20487;-75
2021/05/12 09:49:57;;;;;;;7.88;1.15;;;18.10;71.30;;;;;;5071741;28;20050;-76
2021/05/12 09:52:28;;;;;;;6.72;0.68;;;18.00;70.10;;;;;;5108928;22;20053;-79
2021/05/12 09:55:01;;;;;;;8.00;0.28;;;17.90;69.50;;;;;;5074591;28;20478;-77
2021/05/12 09:57:27;;;;;;;4.60;0.55;;;17.60;71.90;;;;;;5073388;28;20425;-75
2021/05/12 09:59:53;;;;;;;3.72;0.20;;;17.30;73.10;;;;;;5051751;28;20036;-76
2021/05/12 10:02:19;;;;;;;6.15;0.20;;;17.30;76.30;;;;;;5068650;28;20021;-75
2021/05/12 10:04:47;;;;;;;4.25;0.65;;;16.90;69.90;;;;;;5053188;28;20024;-74
2021/05/12 10:07:14;;;;;;;1.98;0.10;;;16.60;74.50;;;;;;5035585;28;20370;-77
2021/05/12 10:09:42;;;;;;;6.32;0.65;;;16.50;73.60;;;;;;5035382;28;20482;-74
2021/05/12 10:12:40;;;;;;;5.03;0.40;;;16.10;73.90;;;;;;5036721;28;20040;-75
2021/05/12 10:15:07;;;;;;;6.93;0.75;;;15.90;75.20;;;;;;5016949;28;20406;-75
2021/05/12 10:17:34;;;;;;;3.75;0.50;;;16.00;74.90;;;;;;5053413;28;20025;-75
2021/05/12 10:19:59;;;;;;;7.97;0.47;;;16.20;74.60;;;;;;5040779;28;20035;-75
2021/05/12 10:22:25;;;;;;;2.67;0.70;;;16.60;72.00;;;;;;5062696;28;20021;-75
2021/05/12 10:24:54;;;;;;;4.00;0.70;;;16.70;72.30;;;;;;5067699;28;20143;-75
2021/05/12 10:27:25;;;;;;;6.88;0.68;;;16.50;73.60;;;;;;5063340;28;20017;-75
2021/05/12 10:29:53;;;;;;;8.55;0.75;;;16.80;74.60;;;;;;5071587;28;20039;-75
2021/05/12 10:32:31;;;;;;;5.40;0.25;;;16.20;75.40;;;;;;5055690;28;20100;-76
2021/05/12 10:35:12;;;;;;;7.78;0.75;;;16.20;79.70;;;;;;5054519;28;20033;-76
2021/05/12 10:37:46;;;;;;;2.53;0.28;;;16.20;75.80;;;;;;5053345;28;20029;-75
2021/05/12 10:40:40;;;;;;;5.78;0.85;;;16.20;77.30;;;;;;5054137;28;20032;-75
2021/05/12 10:43:24;;;;;;;6.72;1.00;;;16.40;77.40;;;;;;5035941;28;20119;-76
2021/05/12 10:48:39;;;;;;;8.50;1.08;;;16.90;77.70;;;;;;5066532;28;20056;-75
2021/05/12 10:51:33;;;;;;;5.50;1.15;;;17.20;71.90;;;;;;5050965;28;20032;-76
2021/05/12 10:56:39;;;;;;;4.53;0.40;;;17.50;73.30;;;;;;5067044;28;20051;-77
2021/05/12 10:59:12;;;;;;;4.13;0.77;;;17.60;72.00;;;;;;5055161;28;20052;-77
2021/05/12 11:01:40;;;;;;;3.33;0.30;;;17.60;73.70;;;;;;5048034;28;20080;-76
2021/05/12 11:04:11;;;;;;;4.68;0.88;;;17.40;69.00;;;;;;5031840;28;20039;-75
2021/05/12 11:06:39;;;;;;;5.72;1.42;;;17.10;69.60;;;;;;5052844;28;20021;-75
2021/05/12 11:09:08;;;;;;;7.03;0.73;;;16.80;70.20;;;;;;5052963;28;20569;-76
2021/05/12 11:11:54;;;;;;;2.97;1.05;;;17.70;73.90;;;;;;5047435;28;20023;-76
2021/05/12 11:14:21;;;;;;;6.47;0.40;;;17.90;75.80;;;;;;5043831;28;20524;-76
2021/05/12 11:17:09;;;;;;;3.22;0.40;;;18.50;67.90;;;;;;5073214;28;20392;-76
2021/05/12 11:19:43;;;;;;;3.53;0.32;;;18.40;63.50;;;;;;5070315;28;20029;-75
2021/05/12 11:25:11;;;;;;;4.75;0.65;;;17.70;66.40;;;;;;5074324;28;20029;-76
2021/05/12 11:33:29;;;;;;;4.47;0.88;;;17.50;69.70;;;;;;5074275;28;20061;-76
2021/05/12 11:36:12;;;;;;;4.55;1.00;;;17.50;70.40;;;;;;5055760;28;20029;-75
2021/05/12 11:38:39;;;;;;;5.65;0.68;;;17.30;68.90;;;;;;5037693;28;20017;-76
2021/05/12 11:41:08;;;;;;;3.78;1.00;;;17.30;70.90;;;;;;5069051;28;20480;-76
2021/05/12 11:43:37;;;;;;;8.63;1.17;;;17.50;74.30;;;;;;5076019;28;20113;-76
2021/05/12 11:46:28;;;;;;;5.43;0.70;;;17.40;66.40;;;;;;5075214;28;20028;-75
2021/05/12 11:49:05;;;;;;;6.75;1.15;;;17.50;70.60;;;;;;5068454;28;20056;-76
2021/05/12 11:51:41;;;;;;;9.07;0.52;;;17.70;69.50;;;;;;5074947;28;20024;-76
2021/05/12 11:54:21;;;;;;;8.57;1.58;;;17.80;67.60;;;;;;5070604;28;20485;-76
2021/05/12 11:56:53;;;;;;;2.85;0.20;;;17.70;67.40;;;;;;5038469;28;20033;-76
2021/05/12 11:59:30;;;;;;;3.70;0.30;;;18.40;67.30;;;;;;5037359;28;20063;-75
2021/05/12 12:02:08;;;;;;;3.67;0.38;;;17.70;67.00;;;;;;5055196;28;20480;-75
2021/05/12 12:04:38;;;;;;;2.50;0.13;;;17.90;69.50;;;;;;5037760;28;20075;-76
2021/05/12 12:07:05;;;;;;;7.05;0.88;;;18.50;66.90;;;;;;5054889;28;20016;-74
2021/05/12 12:09:31;;;;;;;2.40;0.40;;;18.10;68.50;;;;;;5057454;28;20023;-75
2021/05/12 12:12:00;;;;;;;2.53;0.30;;;18.20;66.90;;;;;;5074793;28;20025;-76
2021/05/12 12:14:33;;;;;;;6.40;0.22;;;18.20;68.20;;;;;;5075308;28;20044;-76
2021/05/12 12:17:01;;;;;;;1.58;0.10;;;18.40;64.90;;;;;;5075190;28;20032;-75
2021/05/12 12:19:27;;;;;;;1.88;0.10;;;18.50;61.20;;;;;;5074103;28;20024;-77
2021/05/12 12:21:55;;;;;;;5.05;0.15;;;18.40;62.20;;;;;;5075013;28;20031;-74
2021/05/12 12:24:23;;;;;;;4.03;0.77;;;18.50;65.10;;;;;;5073723;28;20039;-75
2021/05/12 12:26:54;;;;;;;3.42;0.10;;;20.90;67.60;;;;;;5056701;28;20017;-77
2021/05/12 12:29:22;;;;;;;7.13;0.17;;;18.30;62.90;;;;;;5074956;28;20084;-76
2021/05/12 12:31:51;;;;;;;2.67;0.10;;;18.80;65.00;;;;;;5075712;28;20462;-77
2021/05/12 12:34:41;;;;;;;4.88;0.40;;;18.90;60.50;;;;;;5064674;28;20363;-75
2021/05/12 12:37:17;;;;;;;2.65;0.25;;;18.80;59.10;;;;;;5036548;28;20036;-74
2021/05/12 12:39:56;;;;;;;3.85;0.47;;;19.10;60.50;;;;;;5055398;28;20024;-75
2021/05/12 12:42:29;;;;;;;4.22;0.60;;;19.10;57.80;;;;;;5042253;28;20056;-75
2021/05/12 12:45:03;;;;;;;6.22;0.10;;;19.00;62.10;;;;;;5081719;23;20044;-78
2021/05/12 12:47:29;;;;;;;1.92;0.15;;;20.10;60.10;;;;;;5087461;22;20459;-76
2021/05/12 12:50:02;;;;;;;2.40;0.52;;;19.00;59.60;;;;;;5074801;28;20026;-75
2021/05/12 12:52:31;;;;;;;4.47;0.47;;;19.20;59.80;;;;;;5054863;28;20029;-77
2021/05/12 12:55:05;;;;;;;5.70;0.28;;;19.30;58.00;;;;;;5036930;28;20053;-75
2021/05/12 12:57:43;;;;;;;2.42;0.20;;;19.60;61.70;;;;;;5036757;28;20082;-76
2021/05/12 13:00:11;;;;;;;;;;;19.60;58.20;;;;;;5054618;28;20033;-75
2021/05/12 13:02:37;;;;;;;3.03;0.00;;;19.40;57.40;;;;;;5054287;28;19905;-75
2021/05/12 13:05:19;;;;;;;5.35;0.20;;;19.30;59.50;;;;;;5054519;28;20482;-76
2021/05/12 13:07:46;;;;;;;2.42;0.30;;;19.30;59.40;;;;;;5054418;28;20040;-77
2021/05/12 13:10:44;;;;;;;5.60;0.28;;;19.20;60.60;;;;;;5054582;28;20470;-74